createdAt,value
2018-04-01T00:01:01.511Z,8.67
2018-04-01T00:03:28.664Z,7.13
2018-04-01T00:05:55.696Z,7.30
2018-04-01T00:08:22.722Z,7.67
2018-04-01T00:10:49.865Z,7.40
2018-04-01T00:13:16.910Z,7.30
2018-04-01T00:15:44.015Z,8.13
2018-04-01T00:18:11.104Z,8.27
2018-04-01T00:20:38.148Z,7.60
2018-04-01T00:23:05.181Z,7.90
2018-04-01T00:25:32.288Z,7.23
2018-04-01T00:27:59.323Z,7.73
2018-04-01T00:30:26.362Z,9.10
2018-04-01T00:32:53.542Z,8.40
2018-04-01T00:35:20.644Z,8.33
2018-04-01T00:37:47.806Z,9.70
2018-04-01T00:40:14.896Z,8.93
2018-04-01T00:42:41.935Z,9.20
2018-04-01T00:45:08.987Z,10.27
2018-04-01T00:47:36.161Z,9.97
2018-04-01T00:50:03.198Z,10.17
2018-04-01T00:52:30.234Z,10.33
2018-04-01T00:54:57.378Z,9.83
2018-04-01T00:57:24.392Z,10.03
2018-04-01T00:59:51.451Z,9.97
2018-04-01T01:02:18.586Z,9.60
2018-04-01T01:04:45.688Z,9.47
2018-04-01T01:07:12.786Z,9.20
2018-04-01T01:09:40.050Z,10.10
2018-04-01T01:12:07.176Z,9.23
2018-04-01T01:14:34.231Z,9.77
2018-04-01T01:17:02.256Z,10.00
2018-04-01T01:19:29.293Z,9.67
2018-04-01T01:21:56.336Z,9.17
2018-04-01T01:24:23.515Z,9.30
2018-04-01T01:26:50.549Z,9.40
2018-04-01T01:29:17.660Z,9.30
2018-04-01T01:31:44.751Z,9.53
2018-04-01T01:34:11.846Z,8.77
2018-04-01T01:36:38.896Z,8.70
2018-04-01T01:39:06.088Z,9.60
2018-04-01T01:41:33.178Z,9.73
2018-04-01T01:44:00.283Z,8.93
2018-04-01T01:46:27.441Z,9.40
2018-04-01T01:48:54.759Z,10.67
2018-04-01T01:51:21.858Z,13.70
2018-04-01T01:53:50.090Z,12.60
2018-04-01T01:56:17.236Z,11.40
2018-04-01T01:58:44.286Z,10.30
2018-04-01T02:01:11.395Z,10.17
2018-04-01T02:03:38.442Z,8.80
2018-04-01T02:06:05.482Z,8.90
2018-04-01T02:08:32.613Z,8.93
2018-04-01T02:10:59.719Z,8.23
2018-04-01T02:13:26.771Z,8.63
2018-04-01T02:15:53.953Z,9.27
2018-04-01T02:18:20.981Z,9.60
2018-04-01T02:20:48.100Z,9.17
2018-04-01T02:23:15.341Z,8.50
2018-04-01T02:25:42.443Z,8.50
2018-04-01T02:28:09.486Z,8.47
2018-04-01T02:30:36.697Z,8.20
2018-04-01T02:33:03.736Z,7.97
2018-04-01T02:35:30.873Z,8.70
2018-04-01T02:37:58.041Z,9.00
2018-04-01T02:40:25.083Z,8.77
2018-04-01T02:42:52.199Z,9.50
2018-04-01T02:45:19.360Z,8.50
2018-04-01T02:47:46.394Z,9.00
2018-04-01T02:50:13.510Z,8.30
2018-04-01T02:52:40.733Z,8.60
2018-04-01T02:55:07.853Z,7.40
2018-04-01T02:57:34.895Z,7.53
2018-04-01T03:00:01.980Z,7.37
2018-04-01T03:02:29.044Z,7.30
2018-04-01T03:04:56.086Z,7.57
2018-04-01T03:07:23.269Z,7.10
2018-04-01T03:09:50.324Z,6.30
2018-04-01T03:12:17.384Z,7.13
2018-04-01T03:14:44.627Z,6.50
2018-04-01T03:17:11.670Z,7.47
2018-04-01T03:19:38.701Z,7.03
2018-04-01T03:22:05.802Z,7.60
2018-04-01T03:24:32.842Z,6.50
2018-04-01T03:27:00.005Z,7.50
2018-04-01T03:29:27.189Z,7.67
2018-04-01T03:31:54.304Z,5.00
2018-04-01T03:34:21.344Z,7.27
2018-04-01T03:36:48.592Z,6.90
2018-04-01T03:39:15.693Z,7.07
2018-04-01T03:41:42.802Z,6.83
2018-04-01T03:44:09.997Z,7.10
2018-04-01T03:46:37.029Z,6.80
2018-04-01T03:49:04.081Z,7.03
2018-04-01T03:51:31.242Z,7.10
2018-04-01T03:53:58.344Z,7.03
2018-04-01T03:56:25.396Z,7.27
2018-04-01T03:58:52.498Z,7.50
2018-04-01T04:01:19.602Z,6.90
2018-04-01T04:03:46.737Z,6.83
2018-04-01T04:06:14.020Z,7.10
2018-04-01T04:08:41.091Z,7.07
2018-04-01T04:11:08.161Z,7.43
2018-04-01T04:13:35.346Z,7.00
2018-04-01T04:16:02.384Z,7.47
2018-04-01T04:18:29.419Z,6.90
2018-04-01T04:20:56.594Z,7.00
2018-04-01T04:23:23.682Z,7.07
2018-04-01T04:25:50.730Z,7.40
2018-04-01T04:28:17.838Z,6.73
2018-04-01T04:30:44.879Z,7.47
2018-04-01T04:33:11.974Z,7.47
2018-04-01T04:35:39.119Z,7.17
2018-04-01T04:38:06.160Z,6.57
2018-04-01T04:40:33.208Z,6.33
2018-04-01T04:43:00.378Z,5.97
2018-04-01T04:45:27.407Z,5.37
2018-04-01T04:47:54.444Z,6.77
2018-04-01T04:50:21.533Z,5.93
2018-04-01T04:52:49.006Z,6.00
2018-04-01T04:55:16.081Z,5.63
2018-04-01T04:57:43.246Z,6.23
2018-04-01T05:00:10.278Z,5.57
2018-04-01T05:02:37.310Z,5.63
2018-04-01T05:05:04.402Z,5.03
2018-04-01T05:07:31.438Z,5.57
2018-04-01T05:09:58.482Z,6.00
2018-04-01T05:12:25.642Z,5.37
2018-04-01T05:14:52.685Z,5.13
2018-04-01T05:17:19.713Z,6.10
2018-04-01T05:19:46.990Z,4.47
2018-04-01T05:22:14.139Z,4.07
2018-04-01T05:24:41.176Z,4.83
2018-04-01T05:27:08.350Z,5.33
2018-04-01T05:29:35.454Z,4.37
2018-04-01T05:32:02.559Z,4.60
2018-04-01T05:34:29.650Z,5.33
2018-04-01T05:36:57.182Z,4.47
2018-04-01T05:39:24.218Z,4.27
2018-04-01T05:41:51.304Z,4.70
2018-04-01T05:44:18.443Z,4.17
2018-04-01T05:46:45.489Z,4.80
2018-04-01T05:49:13.062Z,4.33
2018-04-01T05:51:40.162Z,4.73
2018-04-01T05:54:07.279Z,4.53
2018-04-01T05:56:34.373Z,5.17
2018-04-01T05:59:01.479Z,4.97
2018-04-01T06:01:28.571Z,4.30
2018-04-01T06:03:55.665Z,3.43
2018-04-01T06:06:22.734Z,4.73
2018-04-01T06:08:49.890Z,4.60
2018-04-01T06:11:17.123Z,4.67
2018-04-01T06:13:44.222Z,4.20
2018-04-01T06:16:11.261Z,5.03
2018-04-01T06:18:39.210Z,4.80
2018-04-01T06:21:06.581Z,5.13
2018-04-01T06:23:33.673Z,4.33
2018-04-01T06:26:00.839Z,4.23
2018-04-01T06:28:28.775Z,4.70
2018-04-01T06:30:55.837Z,4.67
2018-04-01T06:33:23.016Z,4.70
2018-04-01T06:35:50.038Z,4.33
2018-04-01T06:38:17.138Z,4.30
2018-04-01T06:40:44.291Z,4.57
2018-04-01T06:43:11.331Z,4.63
2018-04-01T06:45:38.373Z,4.00
2018-04-01T06:48:05.463Z,4.13
2018-04-01T06:50:32.573Z,4.73
2018-04-01T06:52:59.610Z,4.47
2018-04-01T06:55:26.806Z,3.87
2018-04-01T06:57:53.931Z,4.97
2018-04-01T07:00:21.018Z,3.83
2018-04-01T07:02:48.119Z,4.30
2018-04-01T07:05:15.145Z,4.40
2018-04-01T07:07:42.199Z,5.13
2018-04-01T07:10:09.398Z,4.50
2018-04-01T07:12:36.489Z,4.37
2018-04-01T07:15:03.526Z,4.43
2018-04-01T07:17:30.705Z,4.57
2018-04-01T07:19:57.741Z,4.33
2018-04-01T07:22:24.775Z,4.40
2018-04-01T07:24:51.884Z,4.30
2018-04-01T07:27:18.987Z,6.67
2018-04-01T07:29:46.041Z,4.50
2018-04-01T07:32:13.138Z,4.00
2018-04-01T07:34:40.226Z,4.00
2018-04-01T07:37:08.043Z,4.40
2018-04-01T07:39:35.135Z,4.97
2018-04-01T07:42:02.167Z,4.23
2018-04-01T07:44:29.282Z,4.53
2018-04-01T07:46:56.453Z,4.07
2018-04-01T07:49:23.553Z,4.60
2018-04-01T07:51:50.684Z,3.43
2018-04-01T07:54:17.768Z,5.30
2018-04-01T07:56:45.310Z,3.77
2018-04-01T07:59:12.367Z,3.90
2018-04-01T08:01:39.542Z,3.80
2018-04-01T08:04:06.574Z,4.67
2018-04-01T08:06:33.640Z,3.83
2018-04-01T08:09:01.717Z,3.73
2018-04-01T08:11:28.752Z,4.97
2018-04-01T08:13:55.848Z,4.77
2018-04-01T08:16:22.985Z,4.57
2018-04-01T08:18:50.027Z,4.43
2018-04-01T08:21:17.066Z,3.63
2018-04-01T08:23:44.254Z,3.93
2018-04-01T08:26:11.302Z,3.70
2018-04-01T08:28:38.418Z,3.43
2018-04-01T08:31:05.686Z,4.43
2018-04-01T08:33:32.723Z,3.47
2018-04-01T08:36:00.377Z,2.90
2018-04-01T08:38:27.477Z,2.90
2018-04-01T08:40:54.604Z,2.57
2018-04-01T08:43:21.699Z,2.30
2018-04-01T08:45:48.923Z,2.40
2018-04-01T08:48:15.967Z,2.03
2018-04-01T08:50:43.006Z,2.20
2018-04-01T08:53:10.228Z,1.97
2018-04-01T08:55:37.318Z,3.03
2018-04-01T08:58:04.580Z,1.80
2018-04-01T09:00:31.670Z,1.70
2018-04-01T09:02:58.722Z,1.60
2018-04-01T09:05:25.764Z,1.50
2018-04-01T09:07:52.958Z,1.53
2018-04-01T09:10:19.981Z,1.50
2018-04-01T09:12:47.012Z,2.73
2018-04-01T09:15:14.101Z,1.70
2018-04-01T09:17:41.134Z,1.70
2018-04-01T09:20:08.241Z,1.40
2018-04-01T09:22:35.327Z,3.13
2018-04-01T09:25:02.368Z,2.20
2018-04-01T09:27:29.466Z,1.50
2018-04-01T09:29:56.640Z,1.33
2018-04-01T09:32:23.689Z,1.80
2018-04-01T09:34:50.760Z,1.40
2018-04-01T09:37:18.007Z,1.40
2018-04-01T09:39:45.048Z,1.60
2018-04-01T09:42:12.078Z,4.00
2018-04-01T09:44:39.149Z,1.73
2018-04-01T09:47:06.191Z,1.70
2018-04-01T09:49:33.290Z,2.03
2018-04-01T09:52:00.366Z,1.70
2018-04-01T09:54:27.407Z,1.80
2018-04-01T09:56:55.415Z,1.50
2018-04-01T09:59:23.495Z,2.07
2018-04-01T10:01:51.114Z,1.73
2018-04-01T10:04:18.762Z,1.60
2018-04-01T10:06:46.390Z,2.03
2018-04-01T10:09:13.962Z,1.80
2018-04-01T10:11:41.597Z,1.70
2018-04-01T10:14:09.318Z,1.93
2018-04-01T10:16:36.893Z,1.60
2018-04-01T10:19:04.498Z,1.90
2018-04-01T10:21:32.866Z,1.60
2018-04-01T10:24:00.437Z,1.77
2018-04-01T10:26:28.010Z,1.50
2018-04-01T10:28:55.715Z,1.40
2018-04-01T10:31:23.423Z,1.50
2018-04-01T10:33:51.011Z,1.70
2018-04-01T10:36:18.786Z,1.87
2018-04-01T10:38:46.420Z,1.33
2018-04-01T10:41:14.002Z,1.80
2018-04-01T10:43:43.497Z,1.60
2018-04-01T10:46:11.135Z,1.63
2018-04-01T10:48:38.710Z,1.80
2018-04-01T10:51:06.479Z,2.00
2018-04-01T10:53:34.150Z,1.80
2018-04-01T10:56:01.258Z,2.00
2018-04-01T10:58:28.407Z,1.80
2018-04-01T11:00:55.582Z,1.73
2018-04-01T11:03:22.719Z,1.70
2018-04-01T11:05:49.795Z,1.73
2018-04-01T11:08:16.889Z,1.90
2018-04-01T11:10:43.921Z,2.00
2018-04-01T11:13:11.281Z,1.80
2018-04-01T11:15:38.226Z,1.90
2018-04-01T11:18:05.259Z,1.73
2018-04-01T11:20:32.415Z,2.40
2018-04-01T11:22:59.515Z,1.63
2018-04-01T11:25:26.623Z,1.70
2018-04-01T11:27:53.705Z,1.70
2018-04-01T11:30:20.795Z,1.50
2018-04-01T11:32:47.826Z,1.43
2018-04-01T11:35:14.994Z,1.60
2018-04-01T11:37:42.091Z,1.60
2018-04-01T11:40:09.122Z,1.60
2018-04-01T11:42:36.350Z,1.60
2018-04-01T11:45:03.446Z,1.40
2018-04-01T11:47:30.548Z,4.20
2018-04-01T11:49:57.646Z,3.27
2018-04-01T11:52:25.376Z,1.53
2018-04-01T11:54:52.414Z,1.50
2018-04-01T11:57:19.509Z,1.80
2018-04-01T11:59:46.546Z,3.37
2018-04-01T12:02:13.736Z,1.10
2018-04-01T12:04:40.886Z,10.53
2018-04-01T12:07:08.764Z,2.00
2018-04-01T12:09:35.798Z,2.10
2018-04-01T12:12:02.930Z,1.60
2018-04-01T12:14:29.976Z,1.33
2018-04-01T12:16:57.074Z,1.40
2018-04-01T12:19:24.477Z,0.90
2018-04-01T12:21:51.579Z,1.13
2018-04-01T12:24:18.617Z,1.23
2018-04-01T12:26:45.701Z,1.50
2018-04-01T12:29:13.228Z,2.03
2018-04-01T12:31:40.335Z,1.60
2018-04-01T12:34:07.514Z,1.52
2018-04-01T12:36:34.552Z,2.87
2018-04-01T12:39:01.586Z,1.92
2018-04-01T12:41:29.406Z,1.73
2018-04-01T12:43:56.436Z,2.50
2018-04-01T12:46:23.489Z,2.00
2018-04-01T12:48:50.931Z,2.00
2018-04-01T12:51:18.052Z,1.93
2018-04-01T12:53:45.098Z,2.03
2018-04-01T12:56:12.233Z,1.90
2018-04-01T12:58:39.266Z,2.40
2018-04-01T13:01:06.367Z,2.30
2018-04-01T13:03:33.613Z,2.43
2018-04-01T13:06:00.635Z,2.10
2018-04-01T13:08:27.704Z,2.53
2018-04-01T13:10:54.841Z,2.97
2018-04-01T13:13:22.611Z,2.43
2018-04-01T13:15:49.678Z,2.20
2018-04-01T13:18:16.760Z,2.93
2018-04-01T13:20:43.866Z,2.10
2018-04-01T13:23:10.898Z,2.17
2018-04-01T13:25:39.421Z,2.13
2018-04-01T13:28:06.453Z,2.00
2018-04-01T13:30:33.550Z,2.13
2018-04-01T13:33:00.646Z,1.93
2018-04-01T13:35:27.685Z,2.00
2018-04-01T13:37:54.792Z,2.07
2018-04-01T13:40:21.893Z,2.50
2018-04-01T13:42:48.924Z,2.37
2018-04-01T13:45:15.950Z,2.37
2018-04-01T13:47:43.100Z,2.20
2018-04-01T13:50:10.199Z,2.23
2018-04-01T13:52:37.270Z,2.27
2018-04-01T13:55:04.598Z,2.40
2018-04-01T13:57:31.671Z,2.50
2018-04-01T13:59:58.770Z,2.10
2018-04-01T14:02:25.947Z,2.57
2018-04-01T14:04:53.046Z,2.73
2018-04-01T14:07:20.091Z,2.67
2018-04-01T14:09:47.281Z,2.73
2018-04-01T14:12:14.385Z,2.77
2018-04-01T14:14:41.483Z,3.20
2018-04-01T14:17:08.562Z,2.93
2018-04-01T14:19:35.596Z,2.53
2018-04-01T14:22:02.671Z,2.90
2018-04-01T14:24:29.803Z,1.90
2018-04-01T14:26:56.907Z,2.40
2018-04-01T14:29:23.977Z,2.20
2018-04-01T14:31:52.185Z,3.10
2018-04-01T14:34:19.213Z,2.57
2018-04-01T14:36:46.245Z,2.00
2018-04-01T14:39:13.550Z,2.33
2018-04-01T14:41:40.591Z,1.87
2018-04-01T14:44:07.631Z,1.83
2018-04-01T14:46:34.790Z,1.83
2018-04-01T14:49:01.811Z,2.30
2018-04-01T14:51:28.855Z,2.00
2018-04-01T14:53:56.007Z,2.10
2018-04-01T14:56:23.097Z,2.37
2018-04-01T14:58:50.201Z,2.07
2018-04-01T15:01:17.343Z,2.13
2018-04-01T15:03:44.372Z,2.60
2018-04-01T15:06:11.554Z,2.70
2018-04-01T15:08:38.742Z,2.73
2018-04-01T15:11:05.775Z,1.20
2018-04-01T15:13:32.837Z,1.30
2018-04-01T15:15:59.978Z,1.00
2018-04-01T15:18:27.019Z,1.20
2018-04-01T15:20:54.059Z,1.23
2018-04-01T15:23:21.138Z,1.30
2018-04-01T15:25:48.690Z,1.23
2018-04-01T15:28:15.724Z,1.10
2018-04-01T15:30:42.807Z,0.90
2018-04-01T15:33:09.874Z,0.60
2018-04-01T15:35:36.909Z,0.50
2018-04-01T15:38:04.058Z,0.63
2018-04-01T15:40:31.108Z,0.50
2018-04-01T15:42:59.128Z,0.63
2018-04-01T15:45:26.201Z,0.70
2018-04-01T15:47:53.244Z,0.60
2018-04-01T15:50:20.278Z,0.40
2018-04-01T15:52:47.560Z,0.60
2018-04-01T15:55:14.665Z,1.03
2018-04-01T15:57:41.754Z,0.40
2018-04-01T16:00:08.904Z,1.47
2018-04-01T16:02:35.944Z,0.60
2018-04-01T16:05:03.010Z,1.20
2018-04-01T16:07:30.219Z,8.37
2018-04-01T16:09:57.326Z,4.50
2018-04-01T16:12:24.350Z,1.47
2018-04-01T16:14:51.594Z,1.10
2018-04-01T16:17:18.738Z,1.00
2018-04-01T16:19:45.779Z,1.27
2018-04-01T16:22:13.130Z,0.80
2018-04-01T16:24:40.157Z,1.00
2018-04-01T16:27:07.271Z,1.37
2018-04-01T16:29:34.363Z,1.00
2018-04-01T16:32:02.120Z,1.10
2018-04-01T16:34:29.234Z,1.10
2018-04-01T16:36:56.337Z,1.00
2018-04-01T16:39:23.455Z,1.43
2018-04-01T16:41:50.511Z,0.90
2018-04-01T16:44:17.715Z,1.20
2018-04-01T16:46:44.762Z,0.90
2018-04-01T16:49:11.878Z,1.00
2018-04-01T16:51:39.003Z,1.30
2018-04-01T16:54:06.112Z,0.87
2018-04-01T16:56:33.164Z,0.90
2018-04-01T16:59:00.588Z,0.73
2018-04-01T17:01:27.690Z,0.90
2018-04-01T17:03:54.726Z,0.80
2018-04-01T17:06:21.806Z,1.00
2018-04-01T17:08:49.395Z,1.20
2018-04-01T17:11:16.427Z,1.10
2018-04-01T17:13:43.599Z,0.50
2018-04-01T17:16:11.262Z,0.97
2018-04-01T17:18:38.336Z,1.10
2018-04-01T17:21:05.482Z,1.60
2018-04-01T17:23:32.524Z,0.93
2018-04-01T17:25:59.584Z,1.50
2018-04-01T17:28:26.726Z,1.70
2018-04-01T17:30:53.756Z,1.70
2018-04-01T17:33:20.800Z,2.70
2018-04-01T17:35:47.890Z,1.33
2018-04-01T17:38:14.975Z,3.37
2018-04-01T17:40:42.008Z,0.90
2018-04-01T17:43:09.347Z,0.80
2018-04-01T17:45:36.395Z,0.90
2018-04-01T17:48:03.491Z,0.90
2018-04-01T17:50:30.588Z,0.63
2018-04-01T17:52:57.628Z,0.90
2018-04-01T17:55:24.726Z,0.90
2018-04-01T17:57:51.810Z,0.70
2018-04-01T18:00:18.920Z,0.70
2018-04-01T18:02:45.982Z,0.33
2018-04-01T18:05:13.086Z,0.40
2018-04-01T18:07:40.109Z,0.53
2018-04-01T18:10:07.273Z,0.60
2018-04-01T18:12:34.351Z,0.50
2018-04-01T18:15:01.428Z,0.60
2018-04-01T18:17:28.469Z,0.47
2018-04-01T18:19:55.662Z,0.60
2018-04-01T18:22:22.694Z,0.90
2018-04-01T18:24:49.826Z,1.83
2018-04-01T18:27:16.983Z,0.50
2018-04-01T18:29:44.077Z,0.93
2018-04-01T18:32:11.265Z,0.70
2018-04-01T18:34:38.392Z,1.13
2018-04-01T18:37:05.511Z,1.50
2018-04-01T18:39:32.618Z,1.83
2018-04-01T18:41:59.765Z,0.87
2018-04-01T18:44:26.794Z,0.60
2018-04-01T18:46:53.831Z,0.70
2018-04-01T18:49:21.202Z,0.70
2018-04-01T18:51:48.251Z,0.70
2018-04-01T18:54:15.289Z,0.77
2018-04-01T18:56:42.385Z,0.60
2018-04-01T18:59:10.350Z,0.80
2018-04-01T19:01:37.382Z,0.67
2018-04-01T19:04:04.523Z,0.90
2018-04-01T19:06:31.550Z,0.70
2018-04-01T19:08:58.586Z,0.63
2018-04-01T19:11:25.888Z,1.10
2018-04-01T19:13:52.934Z,1.07
2018-04-01T19:16:21.179Z,0.90
2018-04-01T19:18:48.834Z,0.87
2018-04-01T19:21:16.442Z,0.90
2018-04-01T19:23:44.011Z,1.00
2018-04-01T19:26:11.834Z,0.97
2018-04-01T19:28:39.413Z,1.17
2018-04-01T19:31:07.000Z,1.10
2018-04-01T19:33:34.702Z,1.30
2018-04-01T19:36:02.630Z,1.30
2018-04-01T19:38:30.194Z,1.53
2018-04-01T19:40:57.926Z,1.17
2018-04-01T19:43:25.565Z,1.13
2018-04-01T19:45:53.195Z,1.30
2018-04-01T19:48:20.816Z,1.33
2018-04-01T19:50:49.086Z,1.40
2018-04-01T19:53:16.710Z,1.33
2018-04-01T19:55:44.409Z,1.10
2018-04-01T19:58:12.067Z,1.20
2018-04-01T20:00:39.643Z,1.50
2018-04-01T20:03:07.918Z,1.47
2018-04-01T20:05:35.491Z,1.47
2018-04-01T20:08:03.127Z,1.30
2018-04-01T20:10:30.747Z,1.80
2018-04-01T20:12:58.574Z,1.60
2018-04-01T20:15:26.218Z,1.80
2018-04-01T20:17:53.836Z,1.90
2018-04-01T20:20:21.428Z,1.67
2018-04-01T20:22:49.043Z,1.90
2018-04-01T20:25:16.657Z,1.70
2018-04-01T20:27:44.233Z,2.67
2018-04-01T20:30:11.812Z,3.37
2018-04-01T20:32:39.437Z,1.80
2018-04-01T20:35:07.028Z,1.70
2018-04-01T20:37:35.292Z,1.50
2018-04-01T20:40:02.998Z,2.00
2018-04-01T20:42:30.572Z,2.53
2018-04-01T20:44:58.207Z,3.67
2018-04-01T20:47:26.357Z,3.83
2018-04-01T20:49:53.933Z,5.97
2018-04-01T20:52:21.571Z,6.27
2018-04-01T20:54:49.648Z,2.60
2018-04-01T20:57:17.243Z,1.70
2018-04-01T20:59:44.821Z,1.50
2018-04-01T21:02:12.441Z,1.20
2018-04-01T21:04:40.011Z,1.50
2018-04-01T21:07:07.602Z,1.10
2018-04-01T21:09:35.374Z,1.17
2018-04-01T21:12:02.973Z,1.03
2018-04-01T21:14:30.684Z,1.23
2018-04-01T21:16:58.363Z,1.30
2018-04-01T21:19:25.981Z,0.90
2018-04-01T21:21:53.615Z,1.23
2018-04-01T21:24:21.339Z,1.10
2018-04-01T21:26:48.921Z,1.23
2018-04-01T21:29:17.058Z,1.10
2018-04-01T21:31:45.022Z,1.23
2018-04-01T21:34:12.590Z,1.50
2018-04-01T21:36:40.246Z,1.40
2018-04-01T21:39:08.719Z,1.53
2018-04-01T21:41:36.315Z,1.43
2018-04-01T21:44:03.971Z,1.50
2018-04-01T21:46:31.676Z,1.70
2018-04-01T21:48:59.325Z,1.60
2018-04-01T21:51:26.955Z,1.73
2018-04-01T21:53:54.865Z,1.80
2018-04-01T21:56:22.504Z,1.57
2018-04-01T21:58:50.084Z,1.70
2018-04-01T22:01:17.749Z,1.93
2018-04-01T22:03:45.314Z,1.57
2018-04-01T22:06:12.893Z,1.57
2018-04-01T22:08:40.521Z,1.60
2018-04-01T22:11:08.100Z,1.70
2018-04-01T22:13:35.691Z,1.70
2018-04-01T22:16:03.598Z,2.00
2018-04-01T22:18:31.168Z,1.80
2018-04-01T22:20:58.734Z,1.80
2018-04-01T22:23:26.354Z,1.83
2018-04-01T22:25:53.929Z,2.13
2018-04-01T22:28:21.500Z,1.77
2018-04-01T22:30:49.225Z,1.80
2018-04-01T22:33:16.792Z,2.00
2018-04-01T22:35:44.396Z,1.77
2018-04-01T22:38:12.724Z,1.90
2018-04-01T22:40:40.945Z,2.07
2018-04-01T22:43:08.570Z,2.20
2018-04-01T22:45:36.182Z,2.03
2018-04-01T22:48:03.797Z,2.20
2018-04-01T22:50:31.357Z,2.20
2018-04-01T22:52:59.040Z,1.87
2018-04-01T22:55:26.610Z,2.17
2018-04-01T22:57:54.200Z,2.07
2018-04-01T23:00:21.925Z,2.47
2018-04-01T23:02:49.576Z,2.60
2018-04-01T23:05:17.196Z,2.73
2018-04-01T23:07:44.989Z,2.23
2018-04-01T23:10:12.568Z,2.30
2018-04-01T23:12:40.141Z,2.90
2018-04-01T23:15:07.868Z,2.80
2018-04-01T23:17:35.674Z,3.07
2018-04-01T23:20:03.304Z,3.00
2018-04-01T23:22:30.993Z,2.63
2018-04-01T23:24:58.563Z,2.87
2018-04-01T23:27:26.206Z,2.93
2018-04-01T23:29:53.929Z,2.70
2018-04-01T23:32:21.490Z,2.50
2018-04-01T23:34:49.064Z,2.70
2018-04-01T23:37:16.702Z,2.17
2018-04-01T23:39:44.304Z,2.50
2018-04-01T23:42:11.875Z,2.40
2018-04-01T23:44:39.601Z,1.97
2018-04-01T23:47:07.167Z,2.27
2018-04-01T23:49:34.748Z,1.93
2018-04-01T23:52:02.369Z,1.90
2018-04-01T23:54:29.999Z,1.90
2018-04-01T23:56:57.630Z,2.00
2018-04-01T23:59:25.310Z,2.00
